Time;durP1;ratioP1;P1;durP2;ratioP2;P2;SDS_P1;SDS_P2;PMS_P1;PMS_P2;Temp;Humidity;BMP_temperature;BMP_pressure;BME280_temperature;BME280_humidity;BME280_pressure;Samples;Min_cycle;Max_cycle;Signal;HPM_P1;HPM_P2
2022/07/13 00:00:15;;;;;;;;;9.67;9.67;25.00;35.90;;;;;;5094458;28;8878;-78
2022/07/13 00:02:40;;;;;;;;;8.67;8.67;24.90;36.10;;;;;;5094483;28;8794;-80
2022/07/13 00:05:07;;;;;;;;;8.00;8.00;24.90;36.20;;;;;;5094684;28;8791;-79
2022/07/13 00:07:34;;;;;;;;;9.00;9.00;24.80;36.30;;;;;;5094890;28;8881;-79
2022/07/13 00:10:00;;;;;;;;;11.00;9.00;24.90;36.20;;;;;;5094474;28;11393;-80
2022/07/13 00:12:25;;;;;;;;;8.67;8.00;25.00;36.10;;;;;;5095374;28;8740;-80
2022/07/13 00:14:51;;;;;;;;;8.33;8.33;25.00;36.00;;;;;;5098679;28;8760;-79
2022/07/13 00:17:17;;;;;;;;;8.67;8.67;24.90;36.20;;;;;;5098245;28;8848;-79
2022/07/13 00:19:43;;;;;;;;;8.00;8.00;24.90;36.20;;;;;;5098274;28;8788;-79
2022/07/13 00:22:09;;;;;;;;;8.67;8.67;24.90;36.30;;;;;;5098321;28;11376;-80
2022/07/13 00:24:35;;;;;;;;;9.00;9.00;24.90;36.40;;;;;;5098480;28;8870;-80
2022/07/13 00:27:00;;;;;;;;;9.00;7.00;24.90;36.40;;;;;;5098543;28;8811;-79
2022/07/13 00:29:26;;;;;;;;;9.33;9.33;24.80;36.50;;;;;;5098191;28;8760;-79
2022/07/13 00:31:52;;;;;;;;;8.00;8.00;24.80;36.60;;;;;;5098224;28;8858;-80
2022/07/13 00:34:18;;;;;;;;;9.67;9.67;24.70;36.70;;;;;;5098125;28;8780;-79
2022/07/13 00:36:44;;;;;;;;;8.00;8.00;24.70;36.80;;;;;;5098048;28;9402;-80
2022/07/13 00:39:10;;;;;;;;;8.00;8.00;24.70;37.10;;;;;;5080020;28;8768;-79
2022/07/13 00:41:35;;;;;;;;;10.33;10.33;24.60;37.10;;;;;;5098462;28;8767;-79
2022/07/13 00:44:09;;;;;;;;;9.00;9.00;24.70;37.00;;;;;;5079971;28;8796;-79
2022/07/13 00:46:36;;;;;;;;;8.00;8.00;24.60;37.00;;;;;;5097847;28;8783;-79
2022/07/13 00:49:03;;;;;;;;;8.33;8.33;24.60;37.00;;;;;;5096281;28;12115;-80
2022/07/13 00:51:30;;;;;;;;;11.33;11.33;24.60;37.10;;;;;;5097722;28;9550;-80
2022/07/13 00:53:57;;;;;;;;;6.00;6.00;24.60;37.10;;;;;;5097716;28;8840;-79
2022/07/13 00:56:26;;;;;;;;;9.00;9.00;24.60;37.20;;;;;;5097776;28;11376;-80
2022/07/13 00:58:52;;;;;;;;;8.33;7.33;24.50;37.30;;;;;;5097689;28;8774;-79
2022/07/13 01:01:18;;;;;;;;;11.00;9.00;24.50;37.40;;;;;;5097891;28;9457;-80
2022/07/13 01:03:44;;;;;;;;;10.00;10.00;24.40;37.60;;;;;;5097515;28;8768;-80
2022/07/13 01:06:11;;;;;;;;;8.67;8.67;24.30;37.70;;;;;;5097547;28;8799;-79
2022/07/13 01:08:36;;;;;;;;;10.00;10.00;24.30;37.70;;;;;;5097410;28;8748;-81
2022/07/13 01:11:02;;;;;;;;;9.00;9.00;24.30;37.50;;;;;;5097676;28;8770;-80
2022/07/13 01:13:29;;;;;;;;;9.00;9.00;24.40;37.40;;;;;;5097390;28;8968;-80
2022/07/13 01:15:55;;;;;;;;;8.00;8.00;24.40;37.50;;;;;;5097370;28;8752;-80
2022/07/13 01:18:21;;;;;;;;;8.00;8.00;24.40;37.60;;;;;;5097433;28;11424;-80
2022/07/13 01:20:47;;;;;;;;;8.67;8.67;24.40;37.40;;;;;;5097098;28;12102;-80
2022/07/13 01:23:17;;;;;;;;;9.00;9.00;24.40;37.50;;;;;;5079047;28;12064;-79
2022/07/13 01:25:43;;;;;;;;;9.00;9.00;24.40;37.50;;;;;;5097387;28;9235;-80
2022/07/13 01:28:13;;;;;;;;;7.67;7.67;24.30;37.70;;;;;;5096871;28;11542;-80
2022/07/13 01:30:39;;;;;;;;;7.33;7.33;24.20;37.80;;;;;;5097084;28;8779;-80
2022/07/13 01:33:05;;;;;;;;;9.00;9.00;24.30;37.90;;;;;;5097034;28;8775;-80
2022/07/13 01:35:31;;;;;;;;;9.00;9.00;24.10;38.30;;;;;;5097429;28;8772;-79
2022/07/13 01:37:57;;;;;;;;;8.00;8.00;23.80;39.50;;;;;;5096950;28;8802;-79
2022/07/13 01:40:23;;;;;;;;;9.00;9.00;23.80;39.10;;;;;;5096992;28;8811;-80
2022/07/13 01:42:51;;;;;;;;;7.00;7.00;23.90;39.00;;;;;;5097081;28;8768;-80
2022/07/13 01:45:19;;;;;;;;;6.67;6.67;23.80;39.20;;;;;;5096772;28;8767;-80
2022/07/13 01:47:47;;;;;;;;;8.67;7.67;23.80;39.60;;;;;;5096707;28;8915;-80
2022/07/13 01:50:15;;;;;;;;;8.67;8.67;23.50;40.30;;;;;;5096761;28;8802;-81
2022/07/13 01:52:41;;;;;;;;;7.00;7.00;23.10;41.20;;;;;;5096615;28;8772;-79
2022/07/13 01:55:09;;;;;;;;;11.33;8.67;23.20;41.00;;;;;;5096485;28;11380;-81
2022/07/13 01:57:36;;;;;;;;;8.00;8.00;23.40;40.40;;;;;;5096887;28;9506;-81
2022/07/13 02:00:10;;;;;;;;;9.33;9.33;23.50;40.40;;;;;;5096698;28;8740;-79
2022/07/13 02:02:36;;;;;;;;;8.33;8.33;23.50;40.30;;;;;;5096788;28;8778;-80
2022/07/13 02:05:02;;;;;;;;;10.00;8.00;23.40;40.50;;;;;;5096358;28;8752;-81
2022/07/13 02:07:27;;;;;;;;;10.67;10.67;23.40;40.30;;;;;;5096282;28;8814;-80
2022/07/13 02:09:53;;;;;;;;;11.00;10.33;23.50;40.00;;;;;;5096278;28;8825;-82
2022/07/13 02:12:19;;;;;;;;;9.67;8.67;23.60;39.70;;;;;;5096428;28;8756;-80
2022/07/13 02:14:46;;;;;;;;;10.00;10.00;23.60;39.80;;;;;;5096439;28;9442;-80
2022/07/13 02:17:12;;;;;;;;;11.33;10.00;23.60;40.00;;;;;;5096036;28;8756;-80
2022/07/13 02:19:38;;;;;;;;;12.33;10.00;23.60;39.70;;;;;;5096105;28;8788;-81
2022/07/13 02:22:04;;;;;;;;;10.33;10.33;23.50;40.00;;;;;;5096036;28;8764;-81
2022/07/13 02:24:29;;;;;;;;;11.00;11.00;23.60;39.90;;;;;;5095953;28;8874;-79
2022/07/13 02:26:55;;;;;;;;;12.00;11.00;23.40;40.50;;;;;;5095821;28;8876;-79
2022/07/13 02:29:21;;;;;;;;;13.00;13.00;23.30;40.90;;;;;;5095910;28;8748;-80
2022/07/13 02:31:47;;;;;;;;;11.33;11.33;23.30;40.70;;;;;;5096355;28;8775;-79
2022/07/13 02:34:12;;;;;;;;;13.67;13.33;23.40;40.70;;;;;;5077985;28;8760;-79
2022/07/13 02:36:38;;;;;;;;;12.00;11.00;23.30;40.60;;;;;;5095208;28;8810;-80
2022/07/13 02:39:04;;;;;;;;;12.33;10.00;23.30;40.80;;;;;;5078154;28;8764;-80
2022/07/13 02:41:30;;;;;;;;;11.00;11.00;23.30;40.80;;;;;;5095650;28;8771;-80
2022/07/13 02:43:55;;;;;;;;;10.33;10.00;23.30;41.00;;;;;;5095568;28;8810;-81
2022/07/13 02:46:21;;;;;;;;;15.67;15.67;23.10;41.40;;;;;;5095493;28;8964;-80
2022/07/13 02:48:47;;;;;;;;;12.33;12.33;23.20;41.20;;;;;;5095973;28;8788;-79
2022/07/13 02:51:13;;;;;;;;;12.33;11.67;23.20;41.40;;;;;;5095590;28;8749;-79
2022/07/13 02:53:38;;;;;;;;;14.00;13.00;23.10;41.50;;;;;;5095444;28;8791;-80
2022/07/13 02:56:07;;;;;;;;;13.00;12.33;23.10;41.30;;;;;;5077242;28;8818;-80
2022/07/13 02:58:32;;;;;;;;;13.67;13.67;23.00;41.50;;;;;;5095601;28;8776;-80
2022/07/13 03:00:58;;;;;;;;;16.00;16.00;22.90;42.20;;;;;;5095794;28;9485;-79
2022/07/13 03:03:24;;;;;;;;;15.00;15.00;22.90;42.00;;;;;;5095485;28;8764;-79
2022/07/13 03:05:50;;;;;;;;;13.67;13.67;23.00;41.60;;;;;;5095268;28;8748;-79
2022/07/13 03:08:16;;;;;;;;;12.00;11.00;23.10;41.60;;;;;;5095177;28;8787;-79
2022/07/13 03:10:42;;;;;;;;;16.33;15.33;23.10;41.40;;;;;;5095396;28;8755;-79
2022/07/13 03:13:08;;;;;;;;;12.33;11.33;23.10;41.50;;;;;;5095215;28;8926;-80
2022/07/13 03:15:34;;;;;;;;;13.00;13.00;23.20;41.40;;;;;;5095060;28;8783;-79
2022/07/13 03:18:00;;;;;;;;;15.33;14.00;23.30;41.10;;;;;;5095234;28;8807;-80
2022/07/13 03:20:26;;;;;;;;;13.67;12.33;23.30;41.90;;;;;;5094917;28;8784;-80
2022/07/13 03:22:52;;;;;;;;;11.33;10.00;23.40;40.80;;;;;;5094968;28;8767;-79
2022/07/13 03:25:17;;;;;;;;;10.00;9.33;23.40;40.70;;;;;;5094825;28;8922;-79
2022/07/13 03:27:46;;;;;;;;;9.00;9.00;23.40;40.80;;;;;;5094988;28;8792;-80
2022/07/13 03:30:12;;;;;;;;;10.00;10.00;23.30;40.80;;;;;;5094878;28;8760;-81
2022/07/13 03:32:38;;;;;;;;;9.67;9.67;23.30;40.80;;;;;;5094953;28;9423;-80
2022/07/13 03:35:04;;;;;;;;;9.67;9.67;23.30;41.30;;;;;;5094859;28;8772;-80
2022/07/13 03:37:30;;;;;;;;;4.33;4.33;23.30;40.80;;;;;;5094771;28;8764;-79
2022/07/13 03:39:56;;;;;;;;;5.33;5.00;23.40;40.70;;;;;;5094892;28;8751;-80
2022/07/13 03:42:22;;;;;;;;;8.00;8.00;23.40;40.70;;;;;;5094861;28;8759;-80
2022/07/13 03:44:48;;;;;;;;;7.33;7.33;23.40;40.80;;;;;;5094845;28;8767;-80
2022/07/13 03:47:14;;;;;;;;;8.33;7.67;23.30;40.80;;;;;;5093844;28;8803;-80
2022/07/13 03:49:39;;;;;;;;;10.67;10.67;23.30;40.80;;;;;;5094514;28;9410;-80
2022/07/13 03:52:05;;;;;;;;;11.00;11.00;23.40;40.70;;;;;;5094423;28;8764;-79
2022/07/13 03:54:31;;;;;;;;;8.00;7.00;23.40;40.80;;;;;;5094842;28;8756;-79
2022/07/13 03:56:58;;;;;;;;;10.00;10.00;23.40;40.90;;;;;;5094446;28;8760;-81
2022/07/13 03:59:23;;;;;;;;;10.00;10.00;23.30;41.20;;;;;;5095032;28;9410;-80
2022/07/13 04:01:49;;;;;;;;;9.00;9.00;23.20;41.20;;;;;;5094563;28;8767;-80
2022/07/13 04:04:15;;;;;;;;;10.00;8.33;23.20;41.40;;;;;;5094438;28;9413;-80
2022/07/13 04:06:41;;;;;;;;;10.00;10.00;23.20;41.30;;;;;;5094234;28;8791;-79
2022/07/13 04:09:06;;;;;;;;;10.67;10.33;23.30;41.10;;;;;;5094406;28;8752;-81
2022/07/13 04:11:32;;;;;;;;;9.33;9.33;23.30;41.10;;;;;;5094443;28;8764;-80
2022/07/13 04:13:58;;;;;;;;;13.00;12.00;23.30;41.10;;;;;;5094311;28;8898;-80
2022/07/13 04:16:24;;;;;;;;;10.00;9.00;23.20;41.30;;;;;;5094283;28;8736;-79
2022/07/13 04:18:49;;;;;;;;;9.67;9.00;23.20;41.40;;;;;;5094291;28;8810;-80
2022/07/13 04:21:15;;;;;;;;;9.00;9.00;23.00;42.20;;;;;;5094348;28;8760;-80
2022/07/13 04:23:41;;;;;;;;;9.67;8.00;22.90;42.40;;;;;;5094241;28;8760;-81
2022/07/13 04:26:07;;;;;;;;;10.00;10.00;22.80;42.30;;;;;;5094490;28;8768;-80
2022/07/13 04:28:33;;;;;;;;;10.00;10.00;22.90;42.40;;;;;;5094415;28;8874;-79
2022/07/13 04:31:00;;;;;;;;;8.00;7.00;22.90;42.30;;;;;;5094242;28;8850;-79
2022/07/13 04:33:25;;;;;;;;;9.67;9.67;22.80;43.00;;;;;;5094220;28;8748;-80
2022/07/13 04:35:51;;;;;;;;;8.00;8.00;22.80;43.10;;;;;;5094297;28;8772;-79
2022/07/13 04:38:17;;;;;;;;;9.00;9.00;22.60;43.80;;;;;;5094415;28;8768;-80
2022/07/13 04:40:43;;;;;;;;;10.00;10.00;22.40;44.40;;;;;;5094255;28;8764;-80
2022/07/13 04:43:08;;;;;;;;;10.33;10.33;22.50;43.80;;;;;;5094351;28;8772;-80
2022/07/13 04:45:34;;;;;;;;;11.00;11.00;22.50;43.80;;;;;;5093985;28;8768;-81
2022/07/13 04:48:00;;;;;;;;;8.67;6.67;22.60;43.50;;;;;;5093930;28;8842;-81
2022/07/13 04:50:26;;;;;;;;;13.67;13.00;22.70;43.70;;;;;;5094283;28;8849;-81
2022/07/13 04:52:52;;;;;;;;;7.67;7.67;22.70;43.60;;;;;;5093906;28;8764;-80
2022/07/13 04:55:18;;;;;;;;;8.33;8.33;22.60;43.90;;;;;;5093933;28;8764;-81
2022/07/13 04:57:44;;;;;;;;;9.33;9.00;22.50;44.30;;;;;;5094491;28;8895;-80
2022/07/13 05:00:11;;;;;;;;;7.67;7.67;22.60;43.90;;;;;;5097423;28;8882;-80
2022/07/13 05:02:37;;;;;;;;;10.67;10.67;22.60;43.50;;;;;;5098202;28;8798;-80
2022/07/13 05:05:05;;;;;;;;;10.00;10.00;22.60;43.80;;;;;;5097801;28;8882;-80
2022/07/13 05:07:31;;;;;;;;;10.00;10.00;22.60;44.00;;;;;;5097688;28;8806;-79
2022/07/13 05:09:57;;;;;;;;;9.67;9.33;22.50;44.20;;;;;;5098111;28;8787;-80
2022/07/13 05:12:23;;;;;;;;;9.00;9.00;22.60;43.90;;;;;;5097403;28;8768;-81
2022/07/13 05:14:49;;;;;;;;;8.00;8.00;22.50;44.20;;;;;;5097473;28;8759;-79
2022/07/13 05:17:16;;;;;;;;;8.67;8.67;22.60;44.10;;;;;;5097246;28;8774;-80
2022/07/13 05:19:43;;;;;;;;;8.00;8.00;22.40;44.40;;;;;;5097279;28;8814;-79
2022/07/13 05:22:09;;;;;;;;;8.00;7.00;22.50;44.20;;;;;;5097360;28;8776;-80
2022/07/13 05:24:36;;;;;;;;;8.00;8.00;22.50;43.90;;;;;;5097267;28;8759;-80
2022/07/13 05:27:02;;;;;;;;;8.00;8.00;22.40;44.00;;;;;;5097247;28;8826;-79
2022/07/13 05:29:28;;;;;;;;;6.67;6.67;22.60;43.80;;;;;;5097484;28;8752;-79
2022/07/13 05:31:53;;;;;;;;;7.67;7.67;22.40;44.00;;;;;;5097184;28;8866;-79
2022/07/13 05:34:19;;;;;;;;;7.00;7.00;22.30;44.70;;;;;;5097028;28;8842;-79
2022/07/13 05:36:45;;;;;;;;;7.00;7.00;22.10;44.90;;;;;;5096961;28;8744;-79
2022/07/13 05:39:11;;;;;;;;;7.00;7.00;22.00;45.40;;;;;;5079016;28;8764;-79
2022/07/13 05:41:36;;;;;;;;;9.00;9.00;22.10;45.00;;;;;;5096777;28;8776;-80
2022/07/13 05:44:02;;;;;;;;;9.00;9.00;22.30;45.00;;;;;;5096819;28;8939;-79
2022/07/13 05:46:28;;;;;;;;;9.67;9.67;22.30;45.00;;;;;;5096932;28;8820;-80
2022/07/13 05:48:54;;;;;;;;;12.33;11.00;22.30;45.10;;;;;;5096841;28;8779;-80
2022/07/13 05:51:20;;;;;;;;;10.00;10.00;22.30;44.90;;;;;;5096745;28;8775;-81
2022/07/13 05:53:46;;;;;;;;;10.67;10.67;22.20;45.40;;;;;;5096750;28;8764;-80
2022/07/13 05:56:13;;;;;;;;;10.00;10.00;22.20;45.40;;;;;;5096880;28;8957;-79
2022/07/13 05:58:39;;;;;;;;;10.67;9.33;22.20;46.70;;;;;;5078535;28;9474;-79
2022/07/13 06:01:05;;;;;;;;;7.00;7.00;22.40;45.00;;;;;;5078675;28;8768;-80
2022/07/13 06:03:31;;;;;;;;;11.00;11.00;22.70;44.60;;;;;;5096349;28;8784;-80
2022/07/13 06:05:57;;;;;;;;;9.00;9.00;22.70;44.50;;;;;;5096399;28;8798;-80
2022/07/13 06:08:22;;;;;;;;;9.00;9.00;22.80;44.50;;;;;;5096363;28;8772;-81
2022/07/13 06:10:48;;;;;;;;;9.33;9.33;22.60;45.10;;;;;;5095604;28;8780;-80
2022/07/13 06:13:14;;;;;;;;;12.33;12.33;22.40;45.50;;;;;;5096555;28;8755;-80
2022/07/13 06:15:40;;;;;;;;;8.33;8.33;22.30;45.60;;;;;;5096132;28;8790;-80
2022/07/13 06:18:06;;;;;;;;;9.67;9.67;22.20;46.00;;;;;;5096119;28;8808;-79
2022/07/13 06:20:31;;;;;;;;;10.33;10.33;22.30;45.90;;;;;;5078151;28;8880;-79
2022/07/13 06:23:09;;;;;;;;;9.33;9.00;22.50;45.00;;;;;;5096157;28;8878;-80
2022/07/13 06:25:36;;;;;;;;;9.00;9.00;22.80;44.30;;;;;;5096095;28;8778;-80
2022/07/13 06:28:02;;;;;;;;;11.67;11.67;22.90;44.30;;;;;;5095797;28;8924;-80
2022/07/13 06:30:28;;;;;;;;;11.00;11.00;22.70;44.50;;;;;;5095871;28;9489;-80
2022/07/13 06:32:53;;;;;;;;;13.00;13.00;22.80;44.50;;;;;;5096054;28;8855;-79
2022/07/13 06:35:19;;;;;;;;;17.00;16.33;22.90;44.30;;;;;;5095774;28;8748;-79
2022/07/13 06:37:45;;;;;;;;;20.67;20.67;23.20;43.80;;;;;;5095883;28;8772;-79
2022/07/13 06:40:11;;;;;;;;;13.00;13.00;23.30;43.30;;;;;;5095518;28;8756;-79
2022/07/13 06:42:37;;;;;;;;;15.33;15.33;23.00;44.30;;;;;;5095726;28;8752;-80
2022/07/13 06:45:03;;;;;;;;;5.00;5.00;23.00;44.10;;;;;;5095658;28;8878;-79
2022/07/13 06:47:29;;;;;;;;;11.00;11.00;23.10;43.90;;;;;;5095489;28;8827;-81
2022/07/13 06:49:55;;;;;;;;;8.67;8.67;23.00;44.10;;;;;;5095433;28;8771;-80
2022/07/13 06:52:21;;;;;;;;;8.33;8.33;22.70;44.70;;;;;;5095747;28;8764;-79
2022/07/13 06:54:46;;;;;;;;;10.33;10.33;22.70;44.60;;;;;;5095641;28;8756;-79
2022/07/13 06:57:12;;;;;;;;;31.33;28.67;22.90;44.50;;;;;;5095352;28;8787;-80
2022/07/13 06:59:38;;;;;;;;;11.33;11.33;23.10;44.00;;;;;;5095659;28;8784;-80
2022/07/13 07:02:04;;;;;;;;;8.33;8.33;23.20;43.70;;;;;;5077397;28;8768;-80
2022/07/13 07:04:29;;;;;;;;;11.00;11.00;23.30;43.50;;;;;;5095537;28;8767;-80
2022/07/13 07:06:57;;;;;;;;;7.67;7.67;23.10;43.70;;;;;;5095151;28;8796;-80
2022/07/13 07:09:22;;;;;;;;;9.33;9.33;23.10;43.80;;;;;;5095488;28;8842;-79
2022/07/13 07:11:48;;;;;;;;;8.00;8.00;22.90;43.90;;;;;;5095192;28;8796;-81
2022/07/13 07:14:14;;;;;;;;;10.00;10.00;22.60;44.80;;;;;;5095106;28;8744;-80
2022/07/13 07:16:42;;;;;;;;;8.00;8.00;22.70;44.40;;;;;;5095038;28;8786;-80
2022/07/13 07:19:09;;;;;;;;;10.00;10.00;22.90;43.80;;;;;;5095153;28;8800;-80
2022/07/13 07:21:35;;;;;;;;;9.00;9.00;22.80;44.20;;;;;;5095150;28;8787;-81
2022/07/13 07:24:00;;;;;;;;;9.33;8.00;22.90;43.70;;;;;;5094844;28;9410;-80
2022/07/13 07:26:26;;;;;;;;;10.67;8.67;22.90;43.60;;;;;;5077055;28;8796;-81
2022/07/13 07:28:52;;;;;;;;;9.00;7.67;22.90;44.20;;;;;;5094852;28;8752;-80
2022/07/13 07:31:18;;;;;;;;;10.00;10.00;22.80;44.10;;;;;;5094810;28;8799;-80
2022/07/13 07:33:44;;;;;;;;;9.00;9.00;22.90;43.90;;;;;;5094995;28;8870;-80
2022/07/13 07:36:10;;;;;;;;;7.00;7.00;23.20;43.10;;;;;;5094827;28;8906;-80
2022/07/13 07:38:36;;;;;;;;;3.00;3.00;23.40;42.70;;;;;;5094745;28;8788;-80
2022/07/13 07:41:02;;;;;;;;;8.67;8.67;23.60;42.10;;;;;;5076676;28;11522;-81
2022/07/13 07:43:28;;;;;;;;;8.00;8.00;23.80;42.00;;;;;;5094977;28;8760;-80
2022/07/13 07:45:54;;;;;;;;;7.67;7.67;23.80;42.90;;;;;;5094644;28;8760;-79
2022/07/13 07:48:20;;;;;;;;;7.00;7.00;23.60;41.90;;;;;;5094910;28;8852;-80
2022/07/13 07:50:46;;;;;;;;;10.00;10.00;23.70;41.70;;;;;;5094731;28;11389;-80
2022/07/13 07:53:12;;;;;;;;;7.00;7.00;23.80;41.40;;;;;;5094614;28;8767;-81
2022/07/13 07:55:37;;;;;;;;;9.00;7.33;23.70;41.50;;;;;;5094772;28;8763;-81
2022/07/13 07:58:03;;;;;;;;;7.67;7.67;23.80;41.40;;;;;;5094342;28;8784;-81
2022/07/13 08:00:30;;;;;;;;;10.67;10.00;23.80;41.00;;;;;;5094373;28;8854;-81
2022/07/13 08:03:02;;;;;;;;;9.00;9.00;23.50;41.90;;;;;;5094638;28;8772;-81
2022/07/13 08:05:29;;;;;;;;;10.67;10.67;23.50;41.80;;;;;;5094737;28;9490;-80
2022/07/13 08:07:55;;;;;;;;;10.67;10.67;23.50;42.30;;;;;;5094223;28;8934;-81
2022/07/13 08:10:21;;;;;;;;;11.00;11.00;23.60;41.40;;;;;;5095169;28;9382;-80
2022/07/13 08:12:47;;;;;;;;;13.67;13.67;23.60;41.30;;;;;;5094515;28;8798;-81
2022/07/13 08:15:13;;;;;;;;;6.33;5.33;23.70;41.30;;;;;;5094377;28;9429;-80
2022/07/13 08:17:39;;;;;;;;;8.00;8.00;23.90;41.20;;;;;;5094451;28;8811;-80
2022/07/13 08:20:06;;;;;;;;;9.00;9.00;23.90;40.50;;;;;;5092646;28;8803;-80
2022/07/13 08:22:32;;;;;;;;;9.00;9.00;24.10;40.20;;;;;;5094190;28;8903;-80
2022/07/13 08:24:58;;;;;;;;;6.67;6.67;24.20;39.80;;;;;;5094129;28;11370;-80
2022/07/13 08:27:24;;;;;;;;;7.33;7.33;24.20;39.70;;;;;;5094312;28;8807;-80
2022/07/13 08:29:50;;;;;;;;;7.00;7.00;23.80;40.30;;;;;;5076316;28;8774;-80
2022/07/13 08:32:16;;;;;;;;;8.33;8.33;23.90;40.50;;;;;;5094001;28;8790;-80
2022/07/13 08:40:10;;;;;;;;;9.67;9.67;24.20;39.60;;;;;;5097979;28;11364;-80
2022/07/13 08:42:38;;;;;;;;;7.00;7.00;24.40;39.10;;;;;;5097789;28;11410;-80
2022/07/13 08:45:04;;;;;;;;;5.00;5.00;24.30;38.70;;;;;;5098003;28;11373;-80
2022/07/13 08:47:31;;;;;;;;;8.33;8.33;24.40;38.60;;;;;;5097533;28;11418;-80
2022/07/13 08:50:02;;;;;;;;;8.33;8.33;24.50;37.70;;;;;;5097946;28;11405;-80
2022/07/13 08:52:30;;;;;;;;;7.33;7.33;24.60;37.30;;;;;;5097872;28;11384;-80
2022/07/13 08:54:58;;;;;;;;;7.00;7.00;24.60;37.60;;;;;;5097601;28;11407;-80
2022/07/13 08:57:24;;;;;;;;;8.00;8.00;24.50;37.60;;;;;;5097805;28;11454;-80
2022/07/13 08:59:51;;;;;;;;;6.33;6.33;24.40;37.80;;;;;;5097593;28;11390;-80
2022/07/13 09:02:17;;;;;;;;;4.67;4.67;24.30;37.40;;;;;;5097804;28;11394;-81
2022/07/13 09:04:44;;;;;;;;;9.00;8.00;24.40;36.90;;;;;;5097408;28;12147;-80
2022/07/13 09:07:11;;;;;;;;;9.67;8.00;24.60;36.80;;;;;;5079486;28;8802;-80
2022/07/13 09:09:38;;;;;;;;;7.33;7.33;24.50;35.20;;;;;;5097788;28;12068;-81
2022/07/13 09:12:19;;;;;;;;;8.00;8.00;24.80;35.80;;;;;;5097559;28;11457;-79
2022/07/13 09:14:52;;;;;;;;;11.00;9.67;25.00;36.10;;;;;;5097114;28;11392;-80
2022/07/13 09:17:44;;;;;;;;;7.00;7.00;25.20;36.10;;;;;;5097434;28;11411;-81
2022/07/13 09:20:10;;;;;;;;;7.33;7.33;25.10;35.50;;;;;;5096939;28;11418;-80
2022/07/13 09:22:56;;;;;;;;;6.33;5.67;25.20;35.00;;;;;;5097461;28;11456;-80
2022/07/13 09:25:25;;;;;;;;;6.00;6.00;25.20;33.60;;;;;;5079123;28;8780;-80
2022/07/13 09:27:53;;;;;;;;;8.67;8.67;25.30;34.10;;;;;;5096884;28;11440;-81
2022/07/13 09:30:28;;;;;;;;;8.33;8.33;25.30;34.50;;;;;;5096988;28;12057;-81
2022/07/13 09:32:56;;;;;;;;;9.00;8.67;25.30;33.70;;;;;;5097110;28;11427;-80
2022/07/13 09:35:43;;;;;;;;;8.25;8.25;25.40;34.60;;;;;;5097119;28;11497;-82
2022/07/13 09:38:09;;;;;;;;;10.00;8.00;25.50;33.80;;;;;;5096692;28;11414;-81
2022/07/13 09:40:35;;;;;;;;;7.00;7.00;25.60;33.70;;;;;;5096727;28;11392;-81
2022/07/13 09:48:30;;;;;;;;;6.25;6.00;25.70;33.50;;;;;;5096639;28;11503;-81
2022/07/13 09:50:56;;;;;;;;;5.50;5.50;25.60;32.90;;;;;;5096821;28;12033;-81
2022/07/13 09:53:33;;;;;;;;;5.75;5.75;25.70;32.90;;;;;;5096700;28;11404;-81
2022/07/13 09:56:03;;;;;;;;;7.00;7.00;25.80;33.30;;;;;;5096317;28;11503;-80
2022/07/13 09:58:34;;;;;;;;;5.00;5.00;25.80;33.30;;;;;;5096657;28;11505;-82
2022/07/13 10:01:06;;;;;;;;;5.00;5.00;25.60;34.00;;;;;;5096234;28;12131;-81
2022/07/13 10:03:32;;;;;;;;;4.25;4.25;25.60;33.40;;;;;;5096246;28;11409;-81
2022/07/13 10:06:00;;;;;;;;;6.00;6.00;25.70;32.90;;;;;;5096498;28;11481;-81
2022/07/13 10:08:26;;;;;;;;;5.25;5.25;25.50;32.60;;;;;;5096365;28;11420;-81
2022/07/13 10:10:52;;;;;;;;;6.00;6.00;25.70;32.80;;;;;;5096487;28;11378;-82
2022/07/13 10:13:19;;;;;;;;;6.00;5.00;26.00;32.80;;;;;;5096075;28;12089;-82
2022/07/13 10:15:46;;;;;;;;;5.00;5.00;26.10;32.60;;;;;;5096435;28;8763;-81
2022/07/13 10:18:19;;;;;;;;;3.50;3.50;26.30;33.40;;;;;;5096307;28;12042;-81
2022/07/13 10:20:51;;;;;;;;;6.00;6.00;26.30;32.80;;;;;;5096010;28;11431;-82
2022/07/13 10:23:35;;;;;;;;;8.00;8.00;26.10;32.90;;;;;;5096177;28;11361;-82
2022/07/13 10:26:01;;;;;;;;;6.00;4.75;26.30;32.90;;;;;;5095928;28;11478;-81
2022/07/13 10:28:28;;;;;;;;;7.00;6.00;26.30;31.20;;;;;;5078002;28;11516;-81
2022/07/13 10:30:53;;;;;;;;;7.00;7.00;26.40;30.50;;;;;;5096147;28;11429;-81
2022/07/13 10:33:27;;;;;;;;;11.00;10.00;26.60;30.50;;;;;;5095862;28;11401;-81
2022/07/13 10:35:54;;;;;;;;;5.00;5.00;26.90;30.50;;;;;;5096043;28;8776;-81
2022/07/13 10:38:26;;;;;;;;;6.25;6.25;27.30;30.00;;;;;;5095992;28;11395;-80
2022/07/13 10:41:23;;;;;;;;;5.00;5.00;27.50;29.70;;;;;;5095806;28;11374;-80
2022/07/13 10:43:53;;;;;;;;;6.25;6.25;27.50;29.20;;;;;;5095808;28;11404;-81
2022/07/13 10:46:45;;;;;;;;;5.25;5.25;27.30;29.40;;;;;;5095349;28;11434;-81
2022/07/13 10:49:32;;;;;;;;;7.25;4.50;27.20;29.90;;;;;;5095741;28;11527;-81
2022/07/13 10:52:26;;;;;;;;;5.00;5.00;27.20;29.70;;;;;;5077572;28;11416;-82
2022/07/13 10:55:05;;;;;;;;;5.75;5.75;27.20;29.10;;;;;;5095476;28;11473;-80
2022/07/13 10:57:33;;;;;;;;;4.75;4.75;27.30;29.10;;;;;;5094800;28;11424;-81
2022/07/13 11:00:28;;;;;;;;;5.25;5.25;27.40;28.90;;;;;;5095149;28;11432;-82
2022/07/13 11:03:03;;;;;;;;;5.25;5.00;27.60;29.00;;;;;;5095194;28;11471;-82
2022/07/13 11:05:32;;;;;;;;;4.25;4.25;27.50;28.10;;;;;;5077552;28;11506;-81
2022/07/13 11:08:16;;;;;;;;;6.00;6.00;27.30;28.40;;;;;;5095054;28;11460;-81
2022/07/13 11:10:43;;;;;;;;;5.25;5.25;27.30;28.50;;;;;;5095289;28;11561;-81
2022/07/13 11:13:15;;;;;;;;;6.00;6.00;27.70;28.60;;;;;;5095597;28;11383;-81
2022/07/13 11:15:52;;;;;;;;;5.75;5.75;28.00;28.60;;;;;;5095079;28;11376;-81
2022/07/13 11:18:31;;;;;;;;;5.50;5.50;27.70;28.30;;;;;;5077189;28;11414;-81
2022/07/13 11:21:05;;;;;;;;;3.25;3.25;28.00;27.70;;;;;;5094928;28;11433;-80
2022/07/13 11:27:07;;;;;;;;;5.00;5.00;28.40;27.80;;;;;;5094819;28;11478;-80
2022/07/13 11:29:39;;;;;;;;;5.75;5.75;28.60;26.90;;;;;;5094871;28;11513;-79
2022/07/13 11:32:06;;;;;;;;;5.75;5.75;28.30;27.00;;;;;;5094871;28;11390;-81
2022/07/13 11:34:32;;;;;;;;;4.25;4.25;28.30;27.60;;;;;;5094675;28;12060;-80
2022/07/13 11:37:03;;;;;;;;;6.00;6.00;29.00;27.70;;;;;;5094829;28;12055;-80
2022/07/13 11:39:31;;;;;;;;;3.75;3.75;29.30;26.70;;;;;;5094714;28;11463;-80
2022/07/13 11:41:59;;;;;;;;;4.00;4.00;29.90;26.50;;;;;;5094607;28;11396;-81
2022/07/13 11:44:35;;;;;;;;;4.50;4.50;31.20;25.70;;;;;;5077003;28;11425;-81
2022/07/13 11:47:04;;;;;;;;;4.50;4.00;32.80;23.60;;;;;;5094671;28;12075;-81
2022/07/13 11:49:48;;;;;;;;;3.50;3.50;33.30;23.30;;;;;;5094521;28;11453;-81
2022/07/13 11:52:25;;;;;;;;;3.00;3.00;34.20;22.10;;;;;;5094542;28;11412;-82
2022/07/13 11:54:57;;;;;;;;;2.25;2.25;35.20;21.60;;;;;;5094368;28;11400;-83
2022/07/13 11:57:23;;;;;;;;;3.00;3.00;36.20;20.70;;;;;;5094332;28;11394;-82
2022/07/13 11:59:49;;;;;;;;;2.50;2.50;36.80;20.40;;;;;;5094377;28;11468;-82
2022/07/13 12:02:15;;;;;;;;;2.50;2.50;37.30;19.20;;;;;;5094371;28;11453;-82
2022/07/13 12:04:46;;;;;;;;;3.00;3.00;38.50;19.10;;;;;;5094295;28;8764;-82
2022/07/13 12:07:17;;;;;;;;;3.25;3.25;39.60;18.60;;;;;;5094534;28;8816;-82
2022/07/13 12:10:00;;;;;;;;;3.00;3.00;40.40;18.20;;;;;;5097474;28;11485;-83
2022/07/13 12:12:35;;;;;;;;;2.00;2.00;41.10;18.10;;;;;;5098668;28;11394;-82
2022/07/13 12:15:02;;;;;;;;;2.00;2.00;41.50;16.70;;;;;;5098657;28;11389;-82
2022/07/13 12:17:40;;;;;;;;;2.00;2.00;40.60;17.20;;;;;;5098591;28;11408;-82
2022/07/13 12:20:10;;;;;;;;;2.25;2.25;40.40;17.60;;;;;;5098342;28;11416;-83
2022/07/13 12:22:36;;;;;;;;;1.75;1.75;41.10;17.30;;;;;;5098233;28;11405;-83
2022/07/13 12:25:03;;;;;;;;;1.00;1.00;42.20;16.00;;;;;;5098486;28;12101;-83
2022/07/13 12:27:29;;;;;;;;;1.00;1.00;42.10;16.10;;;;;;5098279;28;11442;-81
2022/07/13 12:30:09;;;;;;;;;2.00;2.00;41.30;16.70;;;;;;5098244;28;11401;-83
2022/07/13 12:33:11;;;;;;;;;2.00;2.00;42.00;16.70;;;;;;5098406;28;11443;-83
2022/07/13 12:35:39;;;;;;;;;2.00;2.00;42.60;15.50;;;;;;5015747;28;12071;-83
2022/07/13 12:38:12;;;;;;;;;1.75;1.75;42.80;16.10;;;;;;5016159;28;11422;-83
2022/07/13 12:40:52;;;;;;;;;1.00;1.00;44.00;16.20;;;;;;5015877;28;11447;-83
2022/07/13 12:43:23;;;;;;;;;2.00;2.00;44.40;15.60;;;;;;5015812;28;12089;-83
2022/07/13 12:46:00;;;;;;;;;1.00;1.00;44.50;15.20;;;;;;5015678;28;12179;-84
2022/07/13 12:48:35;;;;;;;;;1.75;1.75;44.60;15.60;;;;;;5015819;28;11516;-83
2022/07/13 12:51:08;;;;;;;;;1.00;1.00;44.40;14.90;;;;;;5013915;28;11459;-82
2022/07/13 12:53:54;;;;;;;;;1.00;1.00;43.60;15.40;;;;;;5015676;28;11427;-83
2022/07/13 12:56:25;;;;;;;;;1.00;1.00;44.20;15.70;;;;;;4999246;28;11430;-82
2022/07/13 12:58:56;;;;;;;;;0.25;0.25;44.10;15.10;;;;;;5015450;28;11457;-82
2022/07/13 13:01:40;;;;;;;;;2.25;2.25;43.90;15.30;;;;;;4999065;28;11459;-82
2022/07/13 13:04:11;;;;;;;;;1.00;1.00;44.40;14.80;;;;;;5015519;28;11438;-82
2022/07/13 13:06:39;;;;;;;;;3.75;3.75;44.60;14.70;;;;;;5015214;28;11601;-82